createdAt,value
2017-12-28T00:02:25.575Z,2.60
2017-12-28T00:04:53.793Z,3.45
2017-12-28T00:07:21.346Z,2.83
2017-12-28T00:09:49.569Z,3.33
2017-12-28T00:12:17.029Z,3.10
2017-12-28T00:14:44.497Z,2.70
2017-12-28T00:17:11.955Z,2.80
2017-12-28T00:19:40.201Z,2.80
2017-12-28T00:22:07.657Z,3.00
2017-12-28T00:24:35.117Z,2.65
2017-12-28T00:27:02.592Z,2.50
2017-12-28T00:29:30.096Z,2.85
2017-12-28T00:31:57.527Z,2.37
2017-12-28T00:34:25.759Z,2.80
2017-12-28T00:36:53.224Z,2.70
2017-12-28T00:39:20.684Z,2.90
2017-12-28T00:41:48.126Z,2.60
2017-12-28T00:44:15.597Z,2.70
2017-12-28T00:46:43.064Z,2.25
2017-12-28T00:49:10.507Z,2.78
2017-12-28T00:51:37.986Z,2.28
2017-12-28T00:54:05.446Z,2.55
2017-12-28T00:56:32.899Z,2.78
2017-12-28T00:59:00.371Z,2.90
2017-12-28T01:01:28.604Z,2.60
2017-12-28T01:03:56.265Z,2.97
2017-12-28T01:06:23.732Z,3.30
2017-12-28T01:08:51.212Z,3.30
2017-12-28T01:11:19.394Z,3.40
2017-12-28T01:13:46.842Z,3.92
2017-12-28T01:16:15.090Z,3.40
2017-12-28T01:18:42.537Z,3.40
2017-12-28T01:21:09.993Z,3.70
2017-12-28T01:23:38.216Z,4.25
2017-12-28T01:26:05.679Z,4.00
2017-12-28T01:28:33.894Z,4.30
2017-12-28T01:31:01.358Z,3.80
2017-12-28T01:33:28.812Z,3.65
2017-12-28T01:35:56.268Z,4.65
2017-12-28T01:38:23.746Z,3.97
2017-12-28T01:40:51.172Z,4.37
2017-12-28T01:43:18.638Z,3.58
2017-12-28T01:45:46.138Z,4.43
2017-12-28T01:48:13.623Z,4.25
2017-12-28T01:50:41.088Z,5.03
2017-12-28T01:53:08.579Z,4.03
2017-12-28T01:55:36.055Z,4.25
2017-12-28T01:58:03.499Z,4.68
2017-12-28T02:00:31.028Z,4.80
2017-12-28T02:02:59.259Z,4.00
2017-12-28T02:05:26.719Z,4.65
2017-12-28T02:07:54.212Z,5.07
2017-12-28T02:10:21.783Z,4.90
2017-12-28T02:12:49.246Z,5.43
2017-12-28T02:15:16.677Z,4.95
2017-12-28T02:17:44.143Z,4.90
2017-12-28T02:20:11.594Z,5.85
2017-12-28T02:22:39.058Z,3.70
2017-12-28T02:25:06.531Z,4.90
2017-12-28T02:27:33.995Z,5.07
2017-12-28T02:30:01.447Z,5.35
2017-12-28T02:32:29.658Z,5.60
2017-12-28T02:34:57.125Z,5.60
2017-12-28T02:37:24.563Z,5.12
2017-12-28T02:39:52.050Z,5.60
2017-12-28T02:42:19.503Z,6.00
2017-12-28T02:44:46.947Z,4.53
2017-12-28T02:47:14.383Z,5.35
2017-12-28T02:49:42.628Z,5.15
2017-12-28T02:52:10.069Z,5.20
2017-12-28T02:54:37.523Z,5.65
2017-12-28T02:57:05.764Z,6.25
2017-12-28T02:59:33.230Z,5.22
2017-12-28T03:02:00.666Z,6.18
2017-12-28T03:04:28.911Z,6.57
2017-12-28T03:06:56.339Z,6.32
2017-12-28T03:09:24.559Z,6.45
2017-12-28T03:11:52.046Z,5.62
2017-12-28T03:14:19.466Z,6.40
2017-12-28T03:16:46.954Z,6.22
2017-12-28T03:19:15.171Z,5.60
2017-12-28T03:21:42.647Z,5.50
2017-12-28T03:24:10.095Z,6.55
2017-12-28T03:26:38.314Z,7.10
2017-12-28T03:29:05.760Z,6.32
2017-12-28T03:31:33.979Z,6.32
2017-12-28T03:34:01.421Z,5.10
2017-12-28T03:36:28.895Z,6.35
2017-12-28T03:38:57.099Z,6.40
2017-12-28T03:41:25.321Z,6.72
2017-12-28T03:43:52.769Z,6.60
2017-12-28T03:46:20.227Z,7.10
2017-12-28T03:48:48.454Z,6.50
2017-12-28T03:51:15.889Z,5.72
2017-12-28T03:53:44.055Z,6.20
2017-12-28T03:56:11.489Z,4.97
2017-12-28T03:58:38.951Z,5.32
2017-12-28T04:01:06.432Z,5.07
2017-12-28T04:03:33.908Z,4.55
2017-12-28T04:06:01.365Z,5.30
2017-12-28T04:08:29.603Z,5.20
2017-12-28T04:10:57.051Z,5.18
2017-12-28T04:13:24.580Z,4.28
2017-12-28T04:15:52.127Z,4.10
2017-12-28T04:18:19.599Z,3.80
2017-12-28T04:20:47.037Z,3.87
2017-12-28T04:23:15.252Z,4.00
2017-12-28T04:25:42.735Z,3.80
2017-12-28T04:28:10.206Z,4.20
2017-12-28T04:30:37.666Z,3.42
2017-12-28T04:33:05.100Z,3.33
2017-12-28T04:35:32.551Z,3.83
2017-12-28T04:38:00.010Z,3.45
2017-12-28T04:40:27.445Z,3.53
2017-12-28T04:42:55.658Z,3.65
2017-12-28T04:45:23.128Z,4.50
2017-12-28T04:47:50.569Z,3.58
2017-12-28T04:50:18.041Z,3.03
2017-12-28T04:52:45.496Z,4.07
2017-12-28T04:55:12.954Z,2.83
2017-12-28T04:57:40.418Z,2.80
2017-12-28T05:00:07.932Z,3.10
2017-12-28T05:02:35.365Z,3.05
2017-12-28T05:05:02.809Z,3.20
2017-12-28T05:07:31.023Z,3.05
2017-12-28T05:09:58.477Z,2.85
2017-12-28T05:12:26.700Z,2.95
2017-12-28T05:14:54.150Z,2.65
2017-12-28T05:17:22.394Z,3.20
2017-12-28T05:19:49.971Z,3.08
2017-12-28T05:22:17.419Z,3.00
2017-12-28T05:24:44.887Z,2.72
2017-12-28T05:27:12.348Z,2.70
2017-12-28T05:29:40.562Z,3.35
2017-12-28T05:32:08.020Z,3.65
2017-12-28T05:34:35.487Z,5.12
2017-12-28T05:37:03.794Z,3.97
2017-12-28T05:39:31.265Z,4.40
2017-12-28T05:41:58.709Z,3.62
2017-12-28T05:44:26.168Z,3.67
2017-12-28T05:46:57.811Z,4.35
2017-12-28T05:49:25.297Z,3.85
2017-12-28T05:51:52.756Z,3.42
2017-12-28T05:54:20.233Z,2.90
2017-12-28T05:56:47.792Z,2.70
2017-12-28T05:59:15.273Z,2.45
2017-12-28T06:01:42.731Z,2.87
2017-12-28T06:04:10.277Z,2.40
2017-12-28T06:06:37.857Z,2.80
2017-12-28T06:09:05.301Z,3.22
2017-12-28T06:11:32.767Z,3.55
2017-12-28T06:14:00.497Z,3.95
2017-12-28T06:16:28.727Z,3.55
2017-12-28T06:18:56.194Z,2.83
2017-12-28T06:21:23.668Z,4.05
2017-12-28T06:23:51.111Z,3.78
2017-12-28T06:26:18.576Z,4.50
2017-12-28T06:28:46.038Z,4.47
2017-12-28T06:31:13.524Z,4.00
2017-12-28T06:33:40.972Z,4.30
2017-12-28T06:36:08.443Z,3.70
2017-12-28T06:38:35.909Z,3.50
2017-12-28T06:41:03.368Z,3.95
2017-12-28T06:43:30.827Z,3.17
2017-12-28T06:45:59.032Z,3.22
2017-12-28T06:48:26.472Z,3.72
2017-12-28T06:50:53.923Z,3.00
2017-12-28T06:53:21.374Z,3.00
2017-12-28T06:55:48.828Z,3.12
2017-12-28T06:58:16.400Z,2.60
2017-12-28T07:00:43.832Z,2.67
2017-12-28T07:03:11.299Z,2.90
2017-12-28T07:05:38.735Z,3.22
2017-12-28T07:08:06.199Z,3.03
2017-12-28T07:10:33.675Z,3.10
2017-12-28T07:13:01.117Z,3.95
2017-12-28T07:15:28.570Z,3.50
2017-12-28T07:17:56.029Z,4.10
2017-12-28T07:20:23.487Z,4.55
2017-12-28T07:22:50.949Z,6.35
2017-12-28T07:25:18.401Z,4.68
2017-12-28T07:27:46.626Z,5.18
2017-12-28T07:30:14.934Z,5.00
2017-12-28T07:32:42.391Z,4.70
2017-12-28T07:35:09.880Z,5.22
2017-12-28T07:37:37.352Z,5.10
2017-12-28T07:40:05.011Z,5.65
2017-12-28T07:42:32.774Z,5.60
2017-12-28T07:45:00.973Z,5.78
2017-12-28T07:47:29.334Z,5.20
2017-12-28T07:49:56.770Z,5.40
2017-12-28T07:52:24.222Z,4.78
2017-12-28T07:54:52.420Z,5.45
2017-12-28T07:57:19.935Z,4.82
2017-12-28T07:59:47.390Z,5.55
2017-12-28T08:02:14.879Z,4.95
2017-12-28T08:04:42.359Z,5.62
2017-12-28T08:07:09.834Z,4.82
2017-12-28T08:09:37.270Z,4.70
2017-12-28T08:12:05.033Z,5.07
2017-12-28T08:14:32.534Z,4.72
2017-12-28T08:17:00.021Z,4.62
2017-12-28T08:19:27.488Z,3.95
2017-12-28T08:21:55.372Z,4.20
2017-12-28T08:24:22.821Z,3.95
2017-12-28T08:26:51.037Z,4.30
2017-12-28T08:29:18.496Z,3.78
2017-12-28T08:31:46.717Z,4.25
2017-12-28T08:34:14.210Z,3.47
2017-12-28T08:36:41.815Z,4.10
2017-12-28T08:39:09.258Z,3.25
2017-12-28T08:41:36.726Z,3.37
2017-12-28T08:44:04.194Z,3.42
2017-12-28T08:46:31.673Z,3.17
2017-12-28T08:48:59.140Z,3.28
2017-12-28T08:51:26.609Z,4.72
2017-12-28T08:53:54.511Z,3.08
2017-12-28T08:56:21.987Z,4.03
2017-12-28T08:58:49.433Z,3.70
2017-12-28T09:01:17.684Z,3.35
2017-12-28T09:03:45.145Z,3.17
2017-12-28T09:06:12.663Z,3.45
2017-12-28T09:08:44.895Z,3.75
2017-12-28T09:11:12.395Z,3.15
2017-12-28T09:13:39.845Z,3.92
2017-12-28T09:16:07.289Z,3.45
2017-12-28T09:18:34.746Z,2.90
2017-12-28T09:21:03.014Z,3.17
2017-12-28T09:23:30.475Z,3.10
2017-12-28T09:25:58.006Z,2.92
2017-12-28T09:28:25.542Z,3.45
2017-12-28T09:30:53.091Z,3.10
2017-12-28T09:33:20.532Z,3.50
2017-12-28T09:35:48.109Z,3.03
2017-12-28T09:38:15.567Z,3.28
2017-12-28T09:40:43.019Z,3.10
2017-12-28T09:43:10.488Z,2.90
2017-12-28T09:45:37.927Z,3.05
2017-12-28T09:48:05.423Z,3.85
2017-12-28T09:50:32.884Z,3.10
2017-12-28T09:53:00.323Z,3.45
2017-12-28T09:55:28.550Z,3.53
2017-12-28T09:57:56.088Z,3.00
2017-12-28T10:00:26.239Z,3.20
2017-12-28T10:02:53.692Z,2.65
2017-12-28T10:15:01.914Z,3.30
2017-12-28T10:17:29.398Z,3.10
2017-12-28T10:19:56.882Z,4.10
2017-12-28T10:22:24.387Z,3.83
2017-12-28T10:24:51.811Z,3.60
2017-12-28T10:27:19.284Z,3.72
2017-12-28T10:29:47.537Z,4.57
2017-12-28T10:32:15.767Z,3.62
2017-12-28T10:34:43.198Z,3.62
2017-12-28T10:37:11.439Z,3.92
2017-12-28T10:39:38.868Z,4.18
2017-12-28T10:42:06.385Z,5.30
2017-12-28T10:44:33.843Z,3.95
2017-12-28T10:47:01.299Z,4.10
2017-12-28T10:49:29.538Z,3.15
2017-12-28T10:51:56.973Z,3.67
2017-12-28T10:54:24.435Z,3.45
2017-12-28T10:56:51.881Z,3.20
2017-12-28T10:59:19.378Z,4.05
2017-12-28T11:01:46.827Z,3.87
2017-12-28T11:04:14.295Z,3.65
2017-12-28T11:06:41.758Z,3.65
2017-12-28T11:09:09.212Z,3.10
2017-12-28T11:11:36.660Z,3.75
2017-12-28T11:14:04.863Z,3.78
2017-12-28T11:16:32.332Z,2.80
2017-12-28T11:19:00.537Z,3.12
2017-12-28T11:21:27.998Z,3.60
2017-12-28T11:23:56.217Z,3.40
2017-12-28T11:26:23.680Z,3.87
2017-12-28T11:28:51.141Z,3.75
2017-12-28T11:31:19.386Z,3.65
2017-12-28T11:33:46.867Z,4.70
2017-12-28T11:36:14.320Z,4.97
2017-12-28T11:38:41.790Z,5.07
2017-12-28T11:41:09.247Z,4.07
2017-12-28T11:43:36.723Z,4.00
2017-12-28T11:46:04.224Z,4.03
2017-12-28T11:48:31.697Z,4.65
2017-12-28T11:50:59.162Z,4.40
2017-12-28T11:53:26.617Z,3.55
2017-12-28T11:55:59.560Z,3.80
2017-12-28T11:58:29.930Z,3.50
2017-12-28T12:01:13.067Z,4.30
2017-12-28T12:03:40.532Z,3.55
2017-12-28T12:06:07.987Z,4.93
2017-12-28T12:08:41.134Z,4.43
2017-12-28T12:11:09.358Z,4.35
2017-12-28T12:13:36.841Z,4.35
2017-12-28T12:16:04.269Z,3.53
2017-12-28T12:18:32.535Z,4.15
2017-12-28T12:21:00.110Z,5.05
2017-12-28T12:23:27.568Z,4.25
2017-12-28T12:25:55.026Z,4.70
2017-12-28T12:28:22.469Z,4.43
2017-12-28T12:30:50.711Z,4.97
2017-12-28T12:33:18.162Z,3.10
2017-12-28T12:35:45.666Z,4.60
2017-12-28T12:38:13.115Z,3.90
2017-12-28T12:40:40.563Z,5.20
2017-12-28T12:43:08.763Z,3.95
2017-12-28T12:45:36.225Z,5.68
2017-12-28T12:48:03.651Z,4.12
2017-12-28T12:50:31.112Z,3.40
2017-12-28T12:52:58.575Z,4.57
2017-12-28T12:55:26.011Z,4.07
2017-12-28T12:57:53.467Z,4.87
2017-12-28T13:00:20.905Z,3.83
2017-12-28T13:02:48.379Z,3.30
2017-12-28T13:05:15.838Z,4.70
2017-12-28T13:07:43.305Z,3.30
2017-12-28T13:10:11.541Z,4.30
2017-12-28T13:12:38.975Z,3.75
2017-12-28T13:15:06.451Z,4.12
2017-12-28T13:17:33.911Z,3.25
2017-12-28T13:20:02.149Z,3.25
2017-12-28T13:22:29.579Z,3.30
2017-12-28T13:24:57.897Z,3.95
2017-12-28T13:27:25.350Z,3.15
2017-12-28T13:29:53.609Z,3.30
2017-12-28T13:32:21.055Z,3.92
2017-12-28T13:34:48.535Z,3.30
2017-12-28T13:37:16.022Z,3.50
2017-12-28T13:39:43.491Z,3.37
2017-12-28T13:42:11.793Z,3.28
2017-12-28T13:44:39.265Z,3.67
2017-12-28T13:47:06.731Z,3.25
2017-12-28T13:49:34.191Z,3.70
2017-12-28T13:52:01.679Z,2.85
2017-12-28T13:54:29.138Z,3.67
2017-12-28T13:56:56.611Z,2.70
2017-12-28T13:59:24.829Z,3.28
2017-12-28T14:01:52.265Z,2.95
2017-12-28T14:04:19.731Z,3.70
2017-12-28T14:06:47.247Z,2.90
2017-12-28T14:09:15.134Z,3.55
2017-12-28T14:11:42.599Z,3.40
2017-12-28T14:14:10.164Z,4.22
2017-12-28T14:16:37.604Z,4.62
2017-12-28T14:19:05.855Z,2.92
2017-12-28T14:21:33.412Z,2.55
2017-12-28T14:24:00.954Z,2.83
2017-12-28T14:26:29.187Z,3.70
2017-12-28T14:28:56.748Z,3.15
2017-12-28T14:31:24.283Z,3.92
2017-12-28T14:33:51.753Z,2.90
2017-12-28T14:36:19.262Z,2.90
2017-12-28T14:38:46.766Z,3.22
2017-12-28T14:41:15.408Z,2.60
2017-12-28T14:43:42.864Z,2.22
2017-12-28T14:46:10.321Z,2.65
2017-12-28T14:48:37.758Z,2.37
2017-12-28T14:51:06.116Z,2.87
2017-12-28T14:53:33.574Z,3.92
2017-12-28T14:56:01.047Z,3.05
2017-12-28T14:58:28.627Z,2.95
2017-12-28T15:00:56.390Z,2.97
2017-12-28T15:03:23.942Z,3.12
2017-12-28T15:05:52.570Z,4.45
2017-12-28T15:08:20.264Z,2.10
2017-12-28T15:10:48.059Z,3.03
2017-12-28T15:13:15.548Z,2.60
2017-12-28T15:15:43.826Z,2.55
2017-12-28T15:18:11.294Z,3.10
2017-12-28T15:20:39.483Z,2.83
2017-12-28T15:23:06.948Z,3.00
2017-12-28T15:25:34.389Z,2.60
2017-12-28T15:28:01.965Z,2.45
2017-12-28T15:30:30.190Z,2.95
2017-12-28T15:32:57.695Z,3.17
2017-12-28T15:35:25.148Z,2.90
2017-12-28T15:37:52.601Z,2.80
2017-12-28T15:40:20.060Z,2.22
2017-12-28T15:42:48.278Z,2.30
2017-12-28T15:45:15.740Z,2.78
2017-12-28T15:47:43.187Z,2.50
2017-12-28T15:50:11.447Z,2.05
2017-12-28T15:52:38.872Z,2.15
2017-12-28T15:55:07.099Z,1.98
2017-12-28T15:57:34.568Z,2.20
2017-12-28T16:00:02.039Z,2.10
2017-12-28T16:02:29.582Z,2.10
2017-12-28T16:04:57.845Z,2.05
2017-12-28T16:07:25.318Z,2.85
2017-12-28T16:09:52.781Z,2.60
2017-12-28T16:12:20.550Z,2.05
2017-12-28T16:14:47.997Z,2.75
2017-12-28T16:17:15.459Z,2.78
2017-12-28T16:19:42.905Z,2.05
2017-12-28T16:22:10.383Z,2.53
2017-12-28T16:24:37.936Z,2.25
2017-12-28T16:27:05.397Z,2.25
2017-12-28T16:29:33.204Z,2.85
2017-12-28T16:32:00.731Z,1.92
2017-12-28T16:34:28.213Z,2.92
2017-12-28T16:36:55.684Z,3.47
2017-12-28T16:39:23.217Z,2.92
2017-12-28T16:41:50.679Z,3.85
2017-12-28T16:44:18.154Z,3.30
2017-12-28T16:46:45.602Z,3.55
2017-12-28T16:49:13.115Z,2.08
2017-12-28T16:51:40.550Z,2.50
2017-12-28T16:54:08.248Z,3.08
2017-12-28T16:56:36.426Z,3.05
2017-12-28T16:59:03.897Z,2.97
2017-12-28T17:01:31.367Z,3.33
2017-12-28T17:03:58.932Z,3.83
2017-12-28T17:06:27.139Z,3.80
2017-12-28T17:08:54.661Z,3.75
2017-12-28T17:11:22.124Z,3.20
2017-12-28T17:13:49.610Z,3.60
2017-12-28T17:16:17.117Z,3.60
2017-12-28T17:18:45.418Z,4.00
2017-12-28T17:21:12.894Z,3.12
2017-12-28T17:23:40.316Z,2.53
2017-12-28T17:26:07.804Z,3.30
2017-12-28T17:28:35.350Z,3.80
2017-12-28T17:31:03.031Z,3.03
2017-12-28T17:33:30.689Z,2.70
2017-12-28T17:35:58.372Z,3.58
2017-12-28T17:38:25.892Z,3.12
2017-12-28T17:40:53.360Z,2.42
2017-12-28T17:43:22.015Z,3.35
2017-12-28T17:45:50.237Z,3.78
2017-12-28T17:48:17.949Z,2.85
2017-12-28T17:50:45.433Z,2.65
2017-12-28T17:53:13.394Z,3.28
2017-12-28T17:55:41.236Z,3.20
2017-12-28T17:58:09.007Z,3.62
2017-12-28T18:00:37.624Z,3.42
2017-12-28T18:03:05.181Z,2.42
2017-12-28T18:05:33.464Z,2.95
2017-12-28T18:08:01.019Z,3.45
2017-12-28T18:10:28.497Z,3.42
2017-12-28T18:12:55.945Z,3.53
2017-12-28T18:15:23.384Z,3.35
2017-12-28T18:17:50.823Z,3.33
2017-12-28T18:20:18.309Z,3.03
2017-12-28T18:22:45.764Z,3.12
2017-12-28T18:25:13.224Z,2.83
2017-12-28T18:27:40.767Z,2.97
2017-12-28T18:30:08.309Z,4.28
2017-12-28T18:32:35.903Z,4.53
2017-12-28T18:35:04.166Z,4.05
2017-12-28T18:37:31.672Z,4.07
2017-12-28T18:39:59.236Z,2.80
2017-12-28T18:42:26.971Z,4.80
2017-12-28T18:44:54.457Z,3.33
2017-12-28T18:47:22.343Z,3.62
2017-12-28T18:49:49.799Z,3.75
2017-12-28T18:52:17.395Z,4.32
2017-12-28T18:54:44.857Z,2.92
2017-12-28T18:57:12.349Z,3.10
2017-12-28T18:59:40.168Z,2.22
2017-12-28T19:02:07.717Z,2.97
2017-12-28T19:04:35.262Z,2.50
2017-12-28T19:07:02.802Z,2.60
2017-12-28T19:09:31.150Z,3.00
2017-12-28T19:11:58.797Z,3.17
2017-12-28T19:14:26.335Z,3.10
2017-12-28T19:16:53.928Z,3.40
2017-12-28T19:19:21.988Z,3.10
2017-12-28T19:21:49.464Z,2.78
2017-12-28T19:24:16.930Z,3.20
2017-12-28T19:26:44.406Z,2.78
2017-12-28T19:29:11.911Z,3.45
2017-12-28T19:31:39.420Z,2.97
2017-12-28T19:34:06.877Z,2.65
2017-12-28T19:36:35.099Z,3.33
2017-12-28T19:39:02.613Z,2.47
2017-12-28T19:41:30.161Z,2.90
2017-12-28T19:43:57.598Z,3.22
2017-12-28T19:46:25.858Z,2.90
2017-12-28T19:48:54.109Z,3.30
2017-12-28T19:51:21.630Z,2.65
2017-12-28T19:53:49.077Z,2.70
2017-12-28T19:56:16.544Z,3.05
2017-12-28T19:58:43.997Z,3.17
2017-12-28T20:01:11.473Z,2.95
2017-12-28T20:03:38.964Z,3.55
2017-12-28T20:06:06.489Z,2.70
2017-12-28T20:08:33.944Z,3.80
2017-12-28T20:11:01.401Z,2.65
2017-12-28T20:13:28.901Z,3.00
2017-12-28T20:15:56.571Z,1.98
2017-12-28T20:18:24.054Z,3.25
2017-12-28T20:20:52.074Z,2.50
2017-12-28T20:23:19.724Z,3.25
2017-12-28T20:25:47.241Z,3.15
2017-12-28T20:28:14.797Z,3.05
2017-12-28T20:30:42.274Z,2.50
2017-12-28T20:33:09.763Z,2.80
2017-12-28T20:35:37.233Z,2.50
2017-12-28T20:38:04.692Z,2.80
2017-12-28T20:40:32.201Z,2.85
2017-12-28T20:42:59.680Z,3.10
2017-12-28T20:45:27.905Z,3.33
2017-12-28T20:47:55.612Z,2.90
2017-12-28T20:50:23.069Z,3.03
2017-12-28T20:52:50.530Z,3.05
2017-12-28T20:55:18.014Z,3.20
2017-12-28T20:57:45.741Z,2.55
2017-12-28T21:00:13.997Z,2.53
2017-12-28T21:02:41.440Z,3.33
2017-12-28T21:05:08.916Z,3.40
2017-12-28T21:07:36.400Z,2.83
2017-12-28T21:10:04.366Z,2.90
2017-12-28T21:12:32.352Z,3.03
2017-12-28T21:14:59.887Z,2.90
2017-12-28T21:17:27.548Z,3.42
2017-12-28T21:19:55.016Z,3.50
2017-12-28T21:22:22.658Z,3.33
2017-12-28T21:24:50.095Z,3.03
2017-12-28T21:27:17.546Z,3.10
2017-12-28T21:29:45.055Z,3.85
2017-12-28T21:32:12.569Z,3.00
2017-12-28T21:34:40.045Z,3.00
2017-12-28T21:37:07.499Z,2.78
2017-12-28T21:39:39.739Z,2.92
2017-12-28T21:42:07.226Z,3.25
2017-12-28T21:44:34.686Z,3.12
2017-12-28T21:47:02.234Z,2.87
2017-12-28T21:49:29.725Z,2.80
2017-12-28T21:51:57.255Z,2.60
2017-12-28T21:54:24.816Z,2.92
2017-12-28T21:56:52.703Z,3.00
2017-12-28T21:59:20.977Z,3.00
2017-12-28T22:01:48.449Z,3.35
2017-12-28T22:04:15.938Z,3.15
2017-12-28T22:06:43.385Z,4.20
2017-12-28T22:09:10.873Z,3.30
2017-12-28T22:11:38.311Z,2.90
2017-12-28T22:14:05.790Z,3.47
2017-12-28T22:16:33.249Z,2.45
2017-12-28T22:19:00.722Z,2.97
2017-12-28T22:21:28.178Z,2.83
2017-12-28T22:23:56.398Z,2.72
2017-12-28T22:26:23.855Z,2.70
2017-12-28T22:28:52.096Z,2.78
2017-12-28T22:31:19.555Z,3.30
2017-12-28T22:33:47.002Z,3.12
2017-12-28T22:36:14.472Z,3.55
2017-12-28T22:38:42.712Z,3.05
2017-12-28T22:41:10.144Z,2.85
2017-12-28T22:43:37.599Z,2.85
2017-12-28T22:46:05.921Z,2.85
2017-12-28T22:48:33.376Z,3.00
2017-12-28T22:51:02.369Z,3.42
2017-12-28T22:53:29.846Z,2.55
2017-12-28T22:55:57.271Z,3.10
2017-12-28T22:58:24.703Z,3.30
2017-12-28T23:00:52.149Z,3.85
2017-12-28T23:03:19.600Z,3.05
2017-12-28T23:05:47.067Z,3.28
2017-12-28T23:08:14.560Z,2.90
2017-12-28T23:10:42.011Z,3.12
2017-12-28T23:13:09.455Z,3.80
2017-12-28T23:15:37.655Z,3.45
2017-12-28T23:18:05.888Z,3.15
2017-12-28T23:20:33.340Z,3.12
2017-12-28T23:23:00.819Z,3.72
2017-12-28T23:25:28.287Z,2.83
2017-12-28T23:27:55.764Z,3.10
2017-12-28T23:30:23.184Z,3.33
2017-12-28T23:32:50.647Z,3.15
2017-12-28T23:35:18.064Z,3.72
2017-12-28T23:37:46.303Z,3.80
2017-12-28T23:40:14.574Z,4.80
2017-12-28T23:42:42.627Z,3.28
2017-12-28T23:45:10.855Z,2.55
2017-12-28T23:47:38.296Z,4.30
2017-12-28T23:50:06.550Z,3.28
2017-12-28T23:52:34.595Z,4.03
2017-12-28T23:55:02.047Z,3.75
2017-12-28T23:57:30.251Z,3.25
2017-12-28T23:59:58.477Z,3.42
